createdAt,value
2018-11-20T00:00:40.260Z,37.53
2018-11-20T00:03:40.636Z,38.20
2018-11-20T00:06:29.147Z,38.80
2018-11-20T00:09:26.531Z,37.90
2018-11-20T00:12:13.531Z,35.23
2018-11-20T00:15:07.817Z,34.97
2018-11-20T00:17:51.329Z,42.10
2018-11-20T00:20:47.049Z,40.20
2018-11-20T00:23:34.136Z,36.97
2018-11-20T00:26:21.528Z,35.63
2018-11-20T00:29:12.932Z,39.07
2018-11-20T00:32:00.145Z,36.70
2018-11-20T00:34:47.190Z,35.20
2018-11-20T00:37:42.237Z,39.33
2018-11-20T00:40:36.411Z,37.20
2018-11-20T00:43:16.457Z,35.47
2018-11-20T00:46:14.165Z,33.73
2018-11-20T00:49:01.256Z,32.70
2018-11-20T00:51:39.477Z,38.23
2018-11-20T00:54:29.424Z,34.97
2018-11-20T00:57:15.001Z,34.80
2018-11-20T01:00:00.721Z,37.73
2018-11-20T01:02:57.815Z,36.87
2018-11-20T01:05:58.377Z,32.67
2018-11-20T01:08:44.412Z,34.63
2018-11-20T01:11:35.405Z,32.60
2018-11-20T01:14:22.740Z,33.83
2018-11-20T01:17:11.260Z,37.57
2018-11-20T01:19:50.179Z,34.47
2018-11-20T01:22:32.328Z,34.03
2018-11-20T01:25:19.353Z,30.53
2018-11-20T01:28:03.779Z,32.13
2018-11-20T01:31:00.595Z,32.07
2018-11-20T01:33:49.919Z,32.57
2018-11-20T01:36:53.476Z,36.30
2018-11-20T01:39:47.830Z,35.97
2018-11-20T01:42:48.623Z,33.60
2018-11-20T01:45:55.460Z,35.90
2018-11-20T01:48:38.312Z,36.47
2018-11-20T01:51:20.624Z,31.30
2018-11-20T01:54:07.977Z,33.53
2018-11-20T01:56:50.977Z,32.47
2018-11-20T01:59:42.386Z,30.70
2018-11-20T02:02:26.229Z,31.73
2018-11-20T02:05:26.727Z,33.77
2018-11-20T02:08:07.183Z,34.47
2018-11-20T02:11:10.791Z,32.60
2018-11-20T02:14:03.559Z,32.90
2018-11-20T02:16:54.678Z,32.40
2018-11-20T02:19:41.672Z,31.97
2018-11-20T02:22:24.594Z,32.00
2018-11-20T02:25:06.945Z,33.47
2018-11-20T02:27:49.202Z,30.13
2018-11-20T02:30:40.175Z,33.27
2018-11-20T02:33:21.894Z,34.00
2018-11-20T02:36:11.608Z,29.60
2018-11-20T02:38:58.457Z,31.60
2018-11-20T02:41:45.881Z,31.73
2018-11-20T02:44:29.136Z,31.10
2018-11-20T02:47:23.317Z,35.57
2018-11-20T02:50:15.244Z,28.90
2018-11-20T02:53:03.008Z,32.20
2018-11-20T02:55:50.268Z,32.20
2018-11-20T02:58:37.766Z,30.53
2018-11-20T03:01:25.153Z,32.00
2018-11-20T03:04:28.818Z,30.37
2018-11-20T03:07:15.669Z,30.50
2018-11-20T03:10:16.352Z,31.33
2018-11-20T03:13:03.222Z,33.27
2018-11-20T03:16:03.458Z,30.07
2018-11-20T03:18:50.737Z,32.63
2018-11-20T03:21:40.664Z,28.90
2018-11-20T03:24:28.059Z,29.83
2018-11-20T03:27:14.393Z,32.80
2018-11-20T03:30:41.633Z,31.17
2018-11-20T03:33:41.982Z,33.53
2018-11-20T03:36:33.194Z,31.00
2018-11-20T03:39:36.564Z,32.83
2018-11-20T03:42:33.813Z,29.80
2018-11-20T03:45:20.725Z,30.93
2018-11-20T03:48:08.172Z,28.47
2018-11-20T03:51:02.748Z,29.83
2018-11-20T03:53:51.221Z,30.70
2018-11-20T03:56:38.141Z,27.77
2018-11-20T03:59:25.206Z,29.70
2018-11-20T04:02:29.087Z,28.83
2018-11-20T04:05:09.834Z,28.83
2018-11-20T04:07:58.280Z,30.17
2018-11-20T04:10:39.904Z,28.97
2018-11-20T04:13:34.244Z,29.00
2018-11-20T04:16:22.681Z,28.63
2018-11-20T04:19:09.735Z,26.87
2018-11-20T04:21:56.403Z,27.40
2018-11-20T04:24:43.533Z,26.87
2018-11-20T04:27:30.863Z,28.20
2018-11-20T04:30:54.139Z,25.77
2018-11-20T04:34:08.186Z,25.80
2018-11-20T04:37:29.657Z,27.23
2018-11-20T04:40:18.122Z,25.00
2018-11-20T04:43:05.714Z,26.03
2018-11-20T04:45:52.725Z,22.77
2018-11-20T04:48:39.972Z,28.57
2018-11-20T04:51:37.620Z,27.20
2018-11-20T04:54:31.721Z,29.73
2018-11-20T04:57:20.342Z,27.10
2018-11-20T05:00:11.693Z,23.43
2018-11-20T05:03:08.114Z,25.67
2018-11-20T05:05:55.588Z,24.30
2018-11-20T05:08:36.349Z,23.83
2018-11-20T05:11:36.880Z,26.83
2018-11-20T05:14:33.230Z,25.57
2018-11-20T05:17:34.041Z,25.07
2018-11-20T05:20:34.572Z,28.83
2018-11-20T05:23:27.353Z,26.70
2018-11-20T05:26:19.886Z,23.77
2018-11-20T05:29:14.710Z,25.23
2018-11-20T05:32:01.790Z,24.40
2018-11-20T05:34:56.212Z,23.80
2018-11-20T05:37:50.703Z,24.87
2018-11-20T05:40:45.909Z,22.47
2018-11-20T05:43:43.360Z,21.60
2018-11-20T05:46:30.671Z,23.73
2018-11-20T05:49:15.760Z,22.60
2018-11-20T05:52:03.349Z,25.13
2018-11-20T05:54:50.629Z,23.97
2018-11-20T05:57:37.920Z,21.80
2018-11-20T06:00:19.408Z,20.97
2018-11-20T06:03:07.879Z,24.53
2018-11-20T06:05:56.363Z,23.23
2018-11-20T06:08:43.196Z,20.50
2018-11-20T06:11:34.241Z,19.30
2018-11-20T06:14:34.962Z,22.40
2018-11-20T06:17:17.528Z,19.03
2018-11-20T06:20:15.009Z,22.40
2018-11-20T06:22:57.000Z,19.00
2018-11-20T06:25:42.780Z,19.20
2018-11-20T06:28:33.985Z,18.50
2018-11-20T06:31:21.453Z,15.73
2018-11-20T06:33:58.715Z,17.50
2018-11-20T06:36:50.136Z,19.97
2018-11-20T06:39:47.545Z,23.03
2018-11-20T06:42:34.798Z,23.63
2018-11-20T06:45:26.071Z,17.53
2018-11-20T06:48:14.813Z,18.73
2018-11-20T06:51:06.790Z,17.20
2018-11-20T06:54:00.840Z,14.90
2018-11-20T06:56:52.209Z,16.20
2018-11-20T06:59:39.486Z,16.43
2018-11-20T07:02:33.831Z,13.43
2018-11-20T07:05:24.817Z,15.80
2018-11-20T07:08:23.688Z,10.67
2018-11-20T07:11:10.637Z,16.13
2018-11-20T07:14:20.249Z,9.93
2018-11-20T07:17:17.675Z,15.40
2018-11-20T07:20:06.148Z,14.40
2018-11-20T07:22:54.809Z,13.40
2018-11-20T07:25:40.395Z,11.77
2018-11-20T07:28:27.363Z,13.07
2018-11-20T07:31:14.957Z,11.83
2018-11-20T07:34:15.484Z,18.03
2018-11-20T07:36:53.497Z,14.03
2018-11-20T07:39:56.748Z,13.57
2018-11-20T07:42:45.432Z,12.47
2018-11-20T07:45:46.224Z,13.03
2018-11-20T07:48:35.131Z,10.77
2018-11-20T07:51:26.678Z,12.63
2018-11-20T07:54:09.258Z,13.63
2018-11-20T07:56:56.569Z,10.23
2018-11-20T07:59:53.613Z,10.73
2018-11-20T08:02:33.396Z,12.07
2018-11-20T08:05:14.296Z,13.17
2018-11-20T08:08:08.488Z,11.53
2018-11-20T08:11:09.027Z,13.20
2018-11-20T08:13:57.127Z,13.13
2018-11-20T08:16:54.529Z,12.90
2018-11-20T08:19:55.048Z,13.63
2018-11-20T08:22:46.292Z,11.93
2018-11-20T08:25:49.979Z,12.10
2018-11-20T08:28:36.997Z,11.80
2018-11-20T08:31:28.317Z,12.17
2018-11-20T08:34:16.898Z,12.43
2018-11-20T08:37:04.234Z,10.63
2018-11-20T08:39:51.647Z,13.87
2018-11-20T08:42:52.152Z,11.03
2018-11-20T08:45:40.641Z,10.37
2018-11-20T08:48:28.062Z,9.43
2018-11-20T08:51:16.393Z,11.53
2018-11-20T08:54:10.832Z,13.43
2018-11-20T08:56:59.285Z,8.23
2018-11-20T08:59:48.924Z,10.63
2018-11-20T09:02:35.283Z,8.93
2018-11-20T09:05:25.746Z,11.40
2018-11-20T09:08:12.500Z,12.23
2018-11-20T09:11:04.289Z,11.07
2018-11-20T09:13:55.995Z,9.03
2018-11-20T09:16:47.180Z,12.10
2018-11-20T09:19:36.164Z,9.33
2018-11-20T09:22:23.414Z,10.27
2018-11-20T09:25:10.656Z,10.87
2018-11-20T09:28:00.221Z,9.57
2018-11-20T09:30:51.614Z,9.27
2018-11-20T09:33:39.069Z,11.27
2018-11-20T09:36:30.408Z,12.63
2018-11-20T09:39:17.347Z,12.23
2018-11-20T09:42:14.767Z,8.93
2018-11-20T09:45:19.488Z,10.43
2018-11-20T09:48:06.669Z,9.03
2018-11-20T09:50:54.031Z,9.10
2018-11-20T09:53:42.472Z,9.53
2018-11-20T09:56:46.152Z,11.63
2018-11-20T09:59:43.427Z,7.40
2018-11-20T10:02:32.725Z,9.07
2018-11-20T10:05:36.253Z,8.93
2018-11-20T10:08:23.345Z,7.07
2018-11-20T10:11:12.032Z,8.13
2018-11-20T10:13:59.202Z,10.80
2018-11-20T10:16:46.333Z,9.07
2018-11-20T10:19:36.417Z,7.00
2018-11-20T10:22:23.331Z,7.00
2018-11-20T10:25:10.541Z,7.93
2018-11-20T10:27:57.446Z,8.43
2018-11-20T10:30:44.409Z,6.60
2018-11-20T10:33:25.915Z,7.97
2018-11-20T10:36:11.130Z,6.83
2018-11-20T10:39:05.832Z,8.90
2018-11-20T10:41:53.485Z,9.90
2018-11-20T10:44:40.466Z,7.10
2018-11-20T10:47:37.896Z,8.27
2018-11-20T10:50:25.227Z,7.80
2018-11-20T10:53:22.879Z,8.10
2018-11-20T10:56:00.305Z,9.57
2018-11-20T10:58:48.828Z,9.97
2018-11-20T11:01:36.024Z,8.67
2018-11-20T11:04:30.442Z,7.87
2018-11-20T11:07:18.462Z,7.33
2018-11-20T11:10:10.831Z,9.03
2018-11-20T11:13:04.866Z,7.13
2018-11-20T11:16:00.446Z,8.87
2018-11-20T11:18:48.921Z,6.67
2018-11-20T11:21:36.058Z,7.50
2018-11-20T11:24:43.258Z,7.53
2018-11-20T11:27:46.862Z,6.70
2018-11-20T11:30:35.980Z,9.77
2018-11-20T11:33:42.679Z,7.10
2018-11-20T11:36:29.674Z,7.10
2018-11-20T11:39:13.109Z,10.50
2018-11-20T11:42:00.575Z,9.67
2018-11-20T11:44:47.864Z,12.37
2018-11-20T11:47:42.085Z,6.67
2018-11-20T11:50:27.841Z,6.37
2018-11-20T11:53:25.603Z,7.47
2018-11-20T11:56:15.441Z,6.87
2018-11-20T11:59:04.710Z,13.23
2018-11-20T12:04:52.311Z,7.30
2018-11-20T12:07:47.153Z,6.53
2018-11-20T12:10:41.002Z,8.33
2018-11-20T12:13:29.427Z,8.47
2018-11-20T12:16:17.628Z,6.20
2018-11-20T12:19:11.934Z,8.60
2018-11-20T12:22:06.205Z,12.60
2018-11-20T12:24:53.368Z,6.70
2018-11-20T12:27:40.900Z,10.27
2018-11-20T12:30:32.606Z,7.63
2018-11-20T12:33:31.354Z,7.60
2018-11-20T12:36:23.747Z,6.43
2018-11-20T12:39:19.841Z,6.00
2018-11-20T12:42:10.279Z,47.30
2018-11-20T12:44:54.384Z,20.40
2018-11-20T12:47:50.400Z,28.53
2018-11-20T12:50:38.874Z,15.37
2018-11-20T12:53:26.010Z,36.40
2018-11-20T12:56:14.480Z,16.27
2018-11-20T12:58:57.345Z,19.80
2018-11-20T13:01:44.243Z,10.43
2018-11-20T13:04:51.081Z,14.40
2018-11-20T13:07:42.062Z,8.33
2018-11-20T13:10:33.961Z,13.17
2018-11-20T13:13:36.622Z,7.03
2018-11-20T13:16:14.492Z,6.53
2018-11-20T13:19:08.469Z,7.13
2018-11-20T13:21:55.686Z,7.27
2018-11-20T13:24:42.870Z,6.37
2018-11-20T13:27:34.029Z,10.97
2018-11-20T13:30:40.957Z,7.20
2018-11-20T13:33:28.775Z,10.97
2018-11-20T13:36:16.010Z,10.63
2018-11-20T13:39:07.403Z,11.57
2018-11-20T13:42:06.436Z,7.10
2018-11-20T13:44:55.535Z,7.17
2018-11-20T13:47:42.783Z,7.17
2018-11-20T13:50:29.841Z,9.20
2018-11-20T13:53:16.348Z,10.53
2018-11-20T13:56:22.820Z,9.37
2018-11-20T13:59:14.648Z,8.50
2018-11-20T14:02:18.036Z,7.53
2018-11-20T14:05:09.401Z,8.73
2018-11-20T14:07:57.849Z,8.10
2018-11-20T14:11:04.468Z,9.97
2018-11-20T14:13:45.911Z,6.63
2018-11-20T14:16:32.611Z,7.43
2018-11-20T14:19:24.103Z,7.80
2018-11-20T14:22:11.173Z,7.87
2018-11-20T14:25:03.226Z,9.30
2018-11-20T14:27:43.044Z,6.23
2018-11-20T14:30:30.115Z,12.90
2018-11-20T14:33:20.597Z,8.83
2018-11-20T14:36:11.684Z,9.77
2018-11-20T14:38:56.643Z,9.07
2018-11-20T14:41:42.767Z,6.63
2018-11-20T14:44:24.327Z,6.77
2018-11-20T14:47:10.981Z,13.70
2018-11-20T14:50:11.530Z,10.70
2018-11-20T14:52:49.701Z,11.57
2018-11-20T14:55:49.904Z,9.80
2018-11-20T14:58:38.361Z,20.40
2018-11-20T15:01:18.941Z,20.00
2018-11-20T15:04:05.937Z,9.20
2018-11-20T15:07:00.309Z,10.70
2018-11-20T15:09:38.638Z,7.73
2018-11-20T15:12:20.640Z,6.93
2018-11-20T15:15:07.988Z,13.60
2018-11-20T15:18:08.509Z,11.17
2018-11-20T15:20:55.409Z,12.37
2018-11-20T15:23:55.944Z,16.97
2018-11-20T15:26:42.450Z,8.83
2018-11-20T15:29:49.063Z,11.83
2018-11-20T15:32:35.929Z,18.70
2018-11-20T15:35:14.989Z,13.37
2018-11-20T15:38:06.192Z,9.63
2018-11-20T15:40:53.014Z,12.83
2018-11-20T15:43:40.207Z,11.30
2018-11-20T15:46:38.512Z,12.73
2018-11-20T15:49:26.820Z,7.77
2018-11-20T15:52:18.114Z,17.50
2018-11-20T15:55:05.151Z,10.73
2018-11-20T15:57:50.786Z,8.47
2018-11-20T16:00:45.101Z,11.90
2018-11-20T16:03:33.607Z,14.83
2018-11-20T16:06:22.090Z,10.10
2018-11-20T16:09:09.102Z,9.30
2018-11-20T16:12:03.154Z,12.40
2018-11-20T16:14:46.337Z,9.33
2018-11-20T16:17:40.826Z,9.83
2018-11-20T16:20:19.161Z,8.77
2018-11-20T16:23:06.340Z,9.87
2018-11-20T16:26:39.093Z,10.20
2018-11-20T16:29:38.665Z,10.30
2018-11-20T16:32:34.826Z,10.20
2018-11-20T16:35:34.645Z,9.23
2018-11-20T16:38:37.285Z,9.67
2018-11-20T16:41:23.976Z,11.27
2018-11-20T16:44:11.429Z,8.97
2018-11-20T16:47:08.310Z,11.33
2018-11-20T16:49:54.709Z,10.13
2018-11-20T16:53:00.558Z,9.03
2018-11-20T16:55:46.386Z,12.30
2018-11-20T16:58:39.629Z,11.67
2018-11-20T17:01:38.916Z,13.67
2018-11-20T17:04:21.616Z,14.10
2018-11-20T17:07:09.265Z,35.93
2018-11-20T17:09:59.754Z,21.40
2018-11-20T17:12:45.972Z,22.47
2018-11-20T17:15:48.539Z,22.10
2018-11-20T17:18:44.800Z,15.73
2018-11-20T17:21:35.100Z,11.70
2018-11-20T17:24:21.445Z,10.10
2018-11-20T17:27:14.928Z,9.87
2018-11-20T17:30:01.651Z,12.20
2018-11-20T17:32:47.850Z,19.10
2018-11-20T17:35:34.139Z,18.93
2018-11-20T17:38:36.790Z,20.57
2018-11-20T17:41:30.530Z,15.20
2018-11-20T17:44:20.929Z,18.60
2018-11-20T17:46:57.395Z,18.20
2018-11-20T17:49:45.103Z,15.73
2018-11-20T17:52:38.665Z,14.37
2018-11-20T17:55:27.422Z,11.73
2018-11-20T17:58:10.204Z,11.57
2018-11-20T18:00:56.185Z,10.83
2018-11-20T18:03:42.248Z,9.67
2018-11-20T18:06:20.821Z,13.67
2018-11-20T18:09:11.076Z,10.10
2018-11-20T18:12:13.801Z,12.47
2018-11-20T18:15:04.018Z,10.57
2018-11-20T18:17:51.668Z,10.37
2018-11-20T18:20:37.892Z,9.33
2018-11-20T18:23:24.070Z,10.43
2018-11-20T18:26:04.613Z,9.53
2018-11-20T18:28:52.543Z,21.40
2018-11-20T18:31:40.321Z,19.87
2018-11-20T18:34:26.558Z,24.07
2018-11-20T18:37:14.238Z,29.73
2018-11-20T18:39:55.223Z,20.20
2018-11-20T18:42:41.655Z,13.30
2018-11-20T18:45:31.972Z,14.67
2018-11-20T18:48:25.617Z,10.07
2018-11-20T18:51:22.599Z,10.30
2018-11-20T18:54:15.771Z,10.90
2018-11-20T18:57:15.427Z,12.27
2018-11-20T19:00:05.738Z,15.00
2018-11-20T19:03:08.455Z,12.63
2018-11-20T19:05:54.483Z,13.23
2018-11-20T19:08:57.102Z,16.67
2018-11-20T19:11:50.711Z,13.13
2018-11-20T19:14:41.043Z,13.17
2018-11-20T19:17:34.519Z,18.07
2018-11-20T19:20:23.099Z,11.70
2018-11-20T19:23:04.651Z,10.73
2018-11-20T19:25:52.330Z,11.07
2018-11-20T19:28:38.447Z,16.83
2018-11-20T19:31:24.601Z,14.30
2018-11-20T19:34:18.542Z,9.60
2018-11-20T19:37:06.283Z,13.40
2018-11-20T19:40:01.818Z,12.00
2018-11-20T19:42:48.243Z,15.13
2018-11-20T19:45:45.462Z,15.60
2018-11-20T19:48:31.820Z,13.17
2018-11-20T19:51:29.994Z,18.70
2018-11-20T19:54:16.297Z,15.03
2018-11-20T19:57:03.032Z,13.97
2018-11-20T19:59:49.371Z,10.03
2018-11-20T20:02:40.773Z,13.43
2018-11-20T20:05:28.190Z,11.40
2018-11-20T20:08:27.797Z,12.10
2018-11-20T20:11:29.154Z,15.53
2018-11-20T20:14:19.347Z,14.27
2018-11-20T20:17:12.990Z,13.23
2018-11-20T20:19:59.097Z,13.13
2018-11-20T20:22:49.497Z,12.83
2018-11-20T20:25:35.476Z,16.40
2018-11-20T20:28:21.647Z,151.80
2018-11-20T20:31:07.504Z,39.43
2018-11-20T20:33:53.876Z,36.97
2018-11-20T20:36:44.711Z,38.43
2018-11-20T20:39:50.781Z,22.40
2018-11-20T20:42:41.464Z,21.43
2018-11-20T20:45:35.895Z,18.33
2018-11-20T20:48:16.195Z,21.33
2018-11-20T20:51:06.562Z,20.60
2018-11-20T20:53:57.402Z,15.63
2018-11-20T20:56:43.195Z,18.27
2018-11-20T20:59:31.664Z,19.33
2018-11-20T21:02:17.662Z,19.80
2018-11-20T21:05:02.097Z,23.80
2018-11-20T21:07:48.471Z,27.33
2018-11-20T21:10:29.569Z,21.07
2018-11-20T21:13:15.876Z,23.47
2018-11-20T21:16:02.303Z,22.20
2018-11-20T21:18:49.981Z,17.30
2018-11-20T21:21:38.345Z,20.37
2018-11-20T21:24:34.888Z,14.07
2018-11-20T21:27:13.079Z,15.03
2018-11-20T21:29:58.954Z,13.30
2018-11-20T21:32:45.276Z,14.93
2018-11-20T21:35:31.260Z,15.70
2018-11-20T21:38:17.174Z,14.17
2018-11-20T21:40:56.100Z,11.60
2018-11-20T21:43:43.719Z,12.37
2018-11-20T21:46:27.221Z,12.90
2018-11-20T21:49:20.606Z,12.27
2018-11-20T21:52:11.176Z,14.57
2018-11-20T21:54:57.733Z,17.40
2018-11-20T21:57:54.260Z,17.53
2018-11-20T22:00:50.480Z,15.63
2018-11-20T22:03:47.220Z,12.13
2018-11-20T22:06:33.696Z,13.93
2018-11-20T22:09:24.237Z,14.50
2018-11-20T22:12:14.551Z,13.63
2018-11-20T22:15:11.240Z,13.17
2018-11-20T22:17:57.467Z,15.53
2018-11-20T22:20:45.149Z,12.07
2018-11-20T22:23:23.870Z,15.30
2018-11-20T22:26:23.369Z,13.63
2018-11-20T22:29:20.061Z,13.47
2018-11-20T22:32:06.646Z,15.43
2018-11-20T22:35:07.806Z,14.27
2018-11-20T22:37:56.555Z,13.80
2018-11-20T22:40:42.841Z,15.17
2018-11-20T22:43:29.014Z,18.50
2018-11-20T22:46:16.671Z,14.67
2018-11-20T22:49:06.301Z,14.50
2018-11-20T22:51:47.732Z,15.27
2018-11-20T22:54:42.793Z,18.07
2018-11-20T22:57:39.511Z,18.63
2018-11-20T23:00:28.970Z,16.17
2018-11-20T23:03:16.725Z,15.23
2018-11-20T23:06:01.813Z,16.53
2018-11-20T23:08:30.315Z,15.07
2018-11-20T23:10:58.929Z,18.20
2018-11-20T23:13:27.557Z,17.33
2018-11-20T23:15:56.074Z,23.27
2018-11-20T23:18:24.622Z,24.90
2018-11-20T23:20:53.136Z,25.90
2018-11-20T23:23:21.749Z,25.77
2018-11-20T23:25:50.198Z,36.80
2018-11-20T23:28:18.722Z,28.73
2018-11-20T23:30:47.532Z,27.33
2018-11-20T23:33:16.100Z,24.03
2018-11-20T23:35:44.803Z,26.77
2018-11-20T23:38:13.358Z,28.30
2018-11-20T23:40:41.966Z,29.27
2018-11-20T23:43:10.751Z,24.07
2018-11-20T23:45:39.276Z,22.23
2018-11-20T23:48:07.817Z,24.20
2018-11-20T23:50:36.376Z,24.27
2018-11-20T23:53:05.020Z,20.30
2018-11-20T23:55:33.521Z,24.23
2018-11-20T23:58:02.103Z,23.23
